createdAt,value
2017-09-06T00:00:06.903Z,8.73
2017-09-06T00:02:34.380Z,4.37
2017-09-06T00:05:01.839Z,5.40
2017-09-06T00:07:29.331Z,4.57
2017-09-06T00:09:56.787Z,5.63
2017-09-06T00:12:24.270Z,4.97
2017-09-06T00:14:51.739Z,10.33
2017-09-06T00:17:19.238Z,4.77
2017-09-06T00:19:46.696Z,5.60
2017-09-06T00:22:14.151Z,4.23
2017-09-06T00:24:41.659Z,6.80
2017-09-06T00:27:09.133Z,8.53
2017-09-06T00:29:36.595Z,4.43
2017-09-06T00:32:04.087Z,5.17
2017-09-06T00:34:31.591Z,3.97
2017-09-06T00:36:59.095Z,7.47
2017-09-06T00:39:26.547Z,3.90
2017-09-06T00:41:54.039Z,6.93
2017-09-06T00:44:21.510Z,4.23
2017-09-06T00:46:49.730Z,6.53
2017-09-06T00:49:17.249Z,3.90
2017-09-06T00:51:44.710Z,7.90
2017-09-06T00:54:12.169Z,5.30
2017-09-06T00:56:39.667Z,5.97
2017-09-06T00:59:07.160Z,5.23
2017-09-06T01:01:34.698Z,7.97
2017-09-06T01:04:02.155Z,9.60
2017-09-06T01:06:29.619Z,4.57
2017-09-06T01:08:57.136Z,8.17
2017-09-06T01:11:24.609Z,5.13
2017-09-06T01:13:52.064Z,5.50
2017-09-06T01:16:19.563Z,4.07
2017-09-06T01:18:47.044Z,6.43
2017-09-06T01:21:14.540Z,5.57
2017-09-06T01:23:42.044Z,5.30
2017-09-06T01:26:09.518Z,5.77
2017-09-06T01:28:36.975Z,5.70
2017-09-06T01:31:04.470Z,4.80
2017-09-06T01:33:31.930Z,5.73
2017-09-06T01:35:59.402Z,5.80
2017-09-06T01:38:26.894Z,7.47
2017-09-06T01:40:54.376Z,5.50
2017-09-06T01:43:21.878Z,5.50
2017-09-06T01:45:49.348Z,7.17
2017-09-06T01:48:16.807Z,5.90
2017-09-06T01:50:44.287Z,4.30
2017-09-06T01:53:11.776Z,4.73
2017-09-06T01:55:39.272Z,5.57
2017-09-06T01:58:06.784Z,10.20
2017-09-06T02:00:35.043Z,6.50
2017-09-06T02:03:02.496Z,5.87
2017-09-06T02:05:30.018Z,5.33
2017-09-06T02:07:57.469Z,4.70
2017-09-06T02:10:24.943Z,5.27
2017-09-06T02:12:52.416Z,7.47
2017-09-06T02:15:19.942Z,4.07
2017-09-06T02:17:47.403Z,4.27
2017-09-06T02:20:14.867Z,5.00
2017-09-06T02:22:42.359Z,3.33
2017-09-06T02:25:09.839Z,5.40
2017-09-06T02:27:37.337Z,6.50
2017-09-06T02:30:04.819Z,4.10
2017-09-06T02:32:32.279Z,8.80
2017-09-06T02:34:59.764Z,6.53
2017-09-06T02:37:27.234Z,9.70
2017-09-06T02:39:54.740Z,4.17
2017-09-06T02:42:22.212Z,4.73
2017-09-06T02:44:49.679Z,3.77
2017-09-06T02:47:17.174Z,3.57
2017-09-06T02:49:45.410Z,3.30
2017-09-06T02:52:12.907Z,3.57
2017-09-06T02:54:40.375Z,2.83
2017-09-06T02:57:07.863Z,3.30
2017-09-06T02:59:35.368Z,3.97
2017-09-06T03:02:02.876Z,3.47
2017-09-06T03:04:30.364Z,5.90
2017-09-06T03:06:57.838Z,6.37
2017-09-06T03:09:25.318Z,4.00
2017-09-06T03:11:52.811Z,2.90
2017-09-06T03:14:20.309Z,3.03
2017-09-06T03:16:47.767Z,3.13
2017-09-06T03:19:15.247Z,4.63
2017-09-06T03:21:42.738Z,3.23
2017-09-06T03:24:10.212Z,3.30
2017-09-06T03:26:37.744Z,2.80
2017-09-06T03:29:05.203Z,2.70
2017-09-06T03:31:32.675Z,3.93
2017-09-06T03:34:00.189Z,3.33
2017-09-06T03:36:27.643Z,3.03
2017-09-06T03:38:55.109Z,2.63
2017-09-06T03:41:22.604Z,3.90
2017-09-06T03:43:50.080Z,4.93
2017-09-06T03:46:17.578Z,7.43
2017-09-06T03:48:45.043Z,3.00
2017-09-06T03:51:12.507Z,4.40
2017-09-06T03:53:39.986Z,8.20
2017-09-06T03:56:07.459Z,4.27
2017-09-06T03:58:34.948Z,6.23
2017-09-06T04:01:02.453Z,3.57
2017-09-06T04:03:29.971Z,4.00
2017-09-06T04:05:57.400Z,3.30
2017-09-06T04:08:24.890Z,3.77
2017-09-06T04:10:52.383Z,3.43
2017-09-06T04:13:19.830Z,2.70
2017-09-06T04:15:47.322Z,5.00
2017-09-06T04:18:14.779Z,3.70
2017-09-06T04:20:42.283Z,2.33
2017-09-06T04:23:09.748Z,3.70
2017-09-06T04:25:37.220Z,9.53
2017-09-06T04:28:04.700Z,4.10
2017-09-06T04:30:32.199Z,4.43
2017-09-06T04:32:59.690Z,4.20
2017-09-06T04:35:27.159Z,2.77
2017-09-06T04:37:54.634Z,10.83
2017-09-06T04:40:22.115Z,4.10
2017-09-06T04:42:49.608Z,3.47
2017-09-06T04:45:17.103Z,5.27
2017-09-06T04:47:44.579Z,6.90
2017-09-06T04:50:12.083Z,4.63
2017-09-06T04:52:39.555Z,3.60
2017-09-06T04:55:07.019Z,4.87
2017-09-06T04:57:35.278Z,4.33
2017-09-06T05:00:02.751Z,4.43
2017-09-06T05:02:30.252Z,5.97
2017-09-06T05:04:57.723Z,6.97
2017-09-06T05:07:25.176Z,9.07
2017-09-06T05:09:52.680Z,5.53
2017-09-06T05:12:20.138Z,4.30
2017-09-06T05:14:47.611Z,4.53
2017-09-06T05:17:15.065Z,9.57
2017-09-06T05:19:42.564Z,4.67
2017-09-06T05:22:10.060Z,7.23
2017-09-06T05:24:37.535Z,5.50
2017-09-06T05:27:05.059Z,6.37
2017-09-06T05:29:32.543Z,7.27
2017-09-06T05:32:00.019Z,6.50
2017-09-06T05:34:27.514Z,6.60
2017-09-06T05:36:54.990Z,4.97
2017-09-06T05:39:22.459Z,5.03
2017-09-06T05:41:49.939Z,5.07
2017-09-06T05:44:17.420Z,4.97
2017-09-06T05:46:44.895Z,4.37
2017-09-06T05:49:12.388Z,9.50
2017-09-06T05:51:39.874Z,5.60
2017-09-06T05:54:07.361Z,5.07
2017-09-06T05:56:34.850Z,10.33
2017-09-06T05:59:02.359Z,7.37
2017-09-06T06:01:29.829Z,5.13
2017-09-06T06:03:57.314Z,8.00
2017-09-06T06:06:24.798Z,4.67
2017-09-06T06:08:52.299Z,2.83
2017-09-06T06:11:19.754Z,2.60
2017-09-06T06:13:47.283Z,2.93
2017-09-06T06:16:14.759Z,2.40
2017-09-06T06:18:42.215Z,3.80
2017-09-06T06:21:09.713Z,3.47
2017-09-06T06:23:37.200Z,2.90
2017-09-06T06:26:04.690Z,2.67
2017-09-06T06:28:32.171Z,4.50
2017-09-06T06:30:59.674Z,4.47
2017-09-06T06:33:27.168Z,4.00
2017-09-06T06:35:54.624Z,3.10
2017-09-06T06:38:22.102Z,5.17
2017-09-06T06:40:49.571Z,2.43
2017-09-06T06:43:17.052Z,3.13
2017-09-06T06:45:44.546Z,4.10
2017-09-06T06:48:12.038Z,3.77
2017-09-06T06:50:39.519Z,2.37
2017-09-06T06:53:06.967Z,2.80
2017-09-06T06:55:34.483Z,4.13
2017-09-06T06:58:01.955Z,4.27
2017-09-06T07:00:29.471Z,2.17
2017-09-06T07:02:56.922Z,4.83
2017-09-06T07:05:24.421Z,14.03
2017-09-06T07:07:51.929Z,6.77
2017-09-06T07:10:19.397Z,3.07
2017-09-06T07:12:46.847Z,4.30
2017-09-06T07:15:14.347Z,2.90
2017-09-06T07:17:41.826Z,9.53
2017-09-06T07:20:09.320Z,3.47
2017-09-06T07:22:36.839Z,4.70
2017-09-06T07:25:04.299Z,2.67
2017-09-06T07:27:31.779Z,2.30
2017-09-06T07:29:59.257Z,2.60
2017-09-06T07:32:26.751Z,2.57
2017-09-06T07:34:54.236Z,3.23
2017-09-06T07:37:21.745Z,3.53
2017-09-06T07:39:49.238Z,3.00
2017-09-06T07:42:16.703Z,2.57
2017-09-06T07:44:44.223Z,2.47
2017-09-06T07:47:11.683Z,3.20
2017-09-06T07:49:39.139Z,4.10
2017-09-06T07:52:06.645Z,2.20
2017-09-06T07:54:34.137Z,2.50
2017-09-06T07:57:01.637Z,2.07
2017-09-06T07:59:29.103Z,6.30
2017-09-06T08:01:56.579Z,2.40
2017-09-06T08:04:24.051Z,3.60
2017-09-06T08:06:57.191Z,2.07
2017-09-06T08:09:24.659Z,1.63
2017-09-06T08:11:52.140Z,2.60
2017-09-06T08:14:19.633Z,3.57
2017-09-06T08:16:47.140Z,3.30
2017-09-06T08:19:14.596Z,4.40
2017-09-06T08:21:42.088Z,3.00
2017-09-06T08:24:09.539Z,3.37
2017-09-06T08:26:37.022Z,4.17
2017-09-06T08:29:04.498Z,4.50
2017-09-06T08:31:32.415Z,2.33
2017-09-06T08:33:59.901Z,1.83
2017-09-06T08:36:27.791Z,2.97
2017-09-06T08:38:55.256Z,2.90
2017-09-06T08:41:22.730Z,3.33
2017-09-06T08:43:50.226Z,2.13
2017-09-06T08:46:17.705Z,3.93
2017-09-06T08:48:45.184Z,4.90
2017-09-06T08:51:12.663Z,3.07
2017-09-06T08:53:40.155Z,3.33
2017-09-06T08:56:07.649Z,4.30
2017-09-06T08:58:35.111Z,10.10
2017-09-06T09:01:02.604Z,2.90
2017-09-06T09:03:30.075Z,2.73
2017-09-06T09:05:57.550Z,3.10
2017-09-06T09:08:25.041Z,2.50
2017-09-06T09:10:52.507Z,3.87
2017-09-06T09:13:19.994Z,3.67
2017-09-06T09:15:47.472Z,4.37
2017-09-06T09:18:14.997Z,2.10
2017-09-06T09:20:42.487Z,3.20
2017-09-06T09:23:09.964Z,2.40
2017-09-06T09:25:38.227Z,2.13
2017-09-06T09:28:05.703Z,2.03
2017-09-06T09:30:33.199Z,2.70
2017-09-06T09:33:00.663Z,3.30
2017-09-06T09:35:28.151Z,3.73
2017-09-06T09:37:55.608Z,2.87
2017-09-06T09:40:23.107Z,2.43
2017-09-06T09:42:50.577Z,1.83
2017-09-06T09:45:18.036Z,3.13
2017-09-06T09:47:45.562Z,2.73
2017-09-06T09:50:13.035Z,2.53
2017-09-06T09:52:40.523Z,3.20
2017-09-06T09:55:07.990Z,2.27
2017-09-06T09:57:35.480Z,2.23
2017-09-06T10:00:02.943Z,2.67
2017-09-06T10:02:30.484Z,2.07
2017-09-06T10:04:57.939Z,2.00
2017-09-06T10:07:25.409Z,3.23
2017-09-06T10:09:52.932Z,2.13
2017-09-06T10:12:20.390Z,2.90
2017-09-06T10:14:47.895Z,3.20
2017-09-06T10:17:15.388Z,1.87
2017-09-06T10:19:42.882Z,2.70
2017-09-06T10:22:10.363Z,3.10
2017-09-06T10:24:37.831Z,4.33
2017-09-06T10:27:05.307Z,3.13
2017-09-06T10:29:32.770Z,5.10
2017-09-06T10:32:00.254Z,9.03
2017-09-06T10:34:27.727Z,3.40
2017-09-06T10:36:55.246Z,2.73
2017-09-06T10:39:22.706Z,2.87
2017-09-06T10:41:50.200Z,7.20
2017-09-06T10:44:17.688Z,4.13
2017-09-06T10:46:45.159Z,3.03
2017-09-06T10:49:12.647Z,2.20
2017-09-06T10:51:40.104Z,4.03
2017-09-06T10:54:07.599Z,4.13
2017-09-06T10:56:35.091Z,3.93
2017-09-06T10:59:02.566Z,2.13
2017-09-06T11:01:30.067Z,8.10
2017-09-06T11:03:57.527Z,1.40
2017-09-06T11:06:24.987Z,4.33
2017-09-06T11:08:52.489Z,3.30
2017-09-06T11:11:20.003Z,9.43
2017-09-06T11:13:47.500Z,2.90
2017-09-06T11:16:14.988Z,1.83
2017-09-06T11:18:42.457Z,3.80
2017-09-06T11:21:09.948Z,2.50
2017-09-06T11:23:37.403Z,5.00
2017-09-06T11:26:04.919Z,2.10
2017-09-06T11:28:32.371Z,2.23
2017-09-06T11:30:59.830Z,2.23
2017-09-06T11:33:27.327Z,2.13
2017-09-06T11:35:54.782Z,1.70
2017-09-06T11:38:22.286Z,3.43
2017-09-06T11:40:49.759Z,1.30
2017-09-06T11:43:17.240Z,4.93
2017-09-06T11:45:44.736Z,1.60
2017-09-06T11:48:12.299Z,1.47
2017-09-06T11:50:39.802Z,5.63
2017-09-06T11:53:07.259Z,1.53
2017-09-06T11:55:34.763Z,2.50
2017-09-06T11:58:02.246Z,3.17
2017-09-06T12:00:29.744Z,1.70
2017-09-06T12:02:57.231Z,1.50
2017-09-06T12:05:24.708Z,1.30
2017-09-06T12:07:53.134Z,2.50
2017-09-06T12:10:20.627Z,2.03
2017-09-06T12:12:48.087Z,1.40
2017-09-06T12:15:15.602Z,1.70
2017-09-06T12:17:43.093Z,1.93
2017-09-06T12:20:10.580Z,2.70
2017-09-06T12:22:38.111Z,1.63
2017-09-06T12:25:05.580Z,3.67
2017-09-06T12:27:33.048Z,3.20
2017-09-06T12:30:00.526Z,3.13
2017-09-06T12:32:28.046Z,2.10
2017-09-06T12:34:55.504Z,2.87
2017-09-06T12:37:22.978Z,3.83
2017-09-06T12:39:50.471Z,1.67
2017-09-06T12:42:17.939Z,2.30
2017-09-06T12:44:45.402Z,7.40
2017-09-06T12:47:12.915Z,3.33
2017-09-06T12:49:40.404Z,1.30
2017-09-06T12:52:07.854Z,1.23
2017-09-06T12:54:35.358Z,1.50
2017-09-06T12:57:02.813Z,2.03
2017-09-06T12:59:30.300Z,1.20
2017-09-06T13:01:57.791Z,1.20
2017-09-06T13:04:25.287Z,1.20
2017-09-06T13:06:52.746Z,1.97
2017-09-06T13:09:20.206Z,2.53
2017-09-06T13:11:47.692Z,1.37
2017-09-06T13:14:15.157Z,1.10
2017-09-06T13:16:42.711Z,1.20
2017-09-06T13:19:10.167Z,1.30
2017-09-06T13:21:37.664Z,1.20
2017-09-06T13:24:05.168Z,1.20
2017-09-06T13:26:32.630Z,2.43
2017-09-06T13:29:00.132Z,1.33
2017-09-06T13:31:27.596Z,1.60
2017-09-06T13:33:55.064Z,1.47
2017-09-06T13:36:23.323Z,1.60
2017-09-06T13:38:50.811Z,2.20
2017-09-06T13:41:19.080Z,1.43
2017-09-06T13:43:46.574Z,2.23
2017-09-06T13:46:14.034Z,1.67
2017-09-06T13:48:41.527Z,1.77
2017-09-06T13:51:09.025Z,2.43
2017-09-06T13:53:36.515Z,3.27
2017-09-06T13:56:03.993Z,5.63
2017-09-06T13:58:31.515Z,1.70
2017-09-06T14:00:59.022Z,1.23
2017-09-06T14:03:26.492Z,1.27
2017-09-06T14:05:53.998Z,2.57
2017-09-06T14:08:21.471Z,2.13
2017-09-06T14:10:48.997Z,1.90
2017-09-06T14:13:16.452Z,6.70
2017-09-06T14:15:43.934Z,1.77
2017-09-06T14:18:11.442Z,2.60
2017-09-06T14:20:38.924Z,1.40
2017-09-06T14:23:06.438Z,3.60
2017-09-06T14:25:33.902Z,1.40
2017-09-06T14:28:01.373Z,1.93
2017-09-06T14:30:28.875Z,2.70
2017-09-06T14:32:56.360Z,1.50
2017-09-06T14:35:23.870Z,3.27
2017-09-06T14:37:51.336Z,2.23
2017-09-06T14:40:19.610Z,2.33
2017-09-06T14:42:47.091Z,4.33
2017-09-06T14:45:14.553Z,1.83
2017-09-06T14:47:42.038Z,1.87
2017-09-06T14:50:09.490Z,2.30
2017-09-06T14:52:36.979Z,4.50
2017-09-06T14:55:04.493Z,3.57
2017-09-06T14:57:31.951Z,3.23
2017-09-06T14:59:59.439Z,3.70
2017-09-06T15:02:26.950Z,9.77
2017-09-06T15:04:54.479Z,2.63
2017-09-06T15:07:21.957Z,2.90
2017-09-06T15:09:49.444Z,1.40
2017-09-06T15:12:16.932Z,3.60
2017-09-06T15:14:44.410Z,3.07
2017-09-06T15:17:11.892Z,2.40
2017-09-06T15:19:39.388Z,5.03
2017-09-06T15:22:06.889Z,2.30
2017-09-06T15:24:34.367Z,3.53
2017-09-06T15:27:01.861Z,7.20
2017-09-06T15:29:29.362Z,1.73
2017-09-06T15:31:56.865Z,4.77
2017-09-06T15:34:24.315Z,4.33
2017-09-06T15:36:51.816Z,1.70
2017-09-06T15:39:19.319Z,4.27
2017-09-06T15:41:46.835Z,3.50
2017-09-06T15:44:14.287Z,2.80
2017-09-06T15:46:41.750Z,7.70
2017-09-06T15:49:09.242Z,3.77
2017-09-06T15:51:37.543Z,4.53
2017-09-06T15:54:05.008Z,3.47
2017-09-06T15:56:32.511Z,8.10
2017-09-06T15:59:00.018Z,1.93
2017-09-06T16:01:27.487Z,6.80
2017-09-06T16:03:55.057Z,2.03
2017-09-06T16:06:22.518Z,2.90
2017-09-06T16:08:49.999Z,3.10
2017-09-06T16:11:17.516Z,2.90
2017-09-06T16:13:45.004Z,2.30
2017-09-06T16:16:12.534Z,2.83
2017-09-06T16:18:39.992Z,2.00
2017-09-06T16:21:07.501Z,3.73
2017-09-06T16:23:34.967Z,5.60
2017-09-06T16:26:02.438Z,3.70
2017-09-06T16:28:29.936Z,3.23
2017-09-06T16:30:57.391Z,4.50
2017-09-06T16:33:24.888Z,2.80
2017-09-06T16:35:52.379Z,4.73
2017-09-06T16:38:19.874Z,6.03
2017-09-06T16:40:47.344Z,4.90
2017-09-06T16:43:14.830Z,3.73
2017-09-06T16:45:42.326Z,4.23
2017-09-06T16:48:09.820Z,3.33
2017-09-06T16:50:37.315Z,5.43
2017-09-06T16:53:04.808Z,15.60
2017-09-06T16:55:32.279Z,10.33
2017-09-06T16:57:59.767Z,10.03
2017-09-06T17:00:27.239Z,6.73
2017-09-06T17:02:54.707Z,4.53
2017-09-06T17:05:22.211Z,7.87
2017-09-06T17:07:49.668Z,5.30
2017-09-06T17:10:17.234Z,6.97
2017-09-06T17:12:44.707Z,8.67
2017-09-06T17:15:12.171Z,7.00
2017-09-06T17:17:39.675Z,5.07
2017-09-06T17:20:07.135Z,7.60
2017-09-06T17:22:35.418Z,7.07
2017-09-06T17:25:02.883Z,4.40
2017-09-06T17:27:30.354Z,8.47
2017-09-06T17:29:57.868Z,7.90
2017-09-06T17:32:25.340Z,5.37
2017-09-06T17:34:52.820Z,5.10
2017-09-06T17:37:21.061Z,9.23
2017-09-06T17:39:48.526Z,6.73
2017-09-06T17:42:16.047Z,6.23
2017-09-06T17:44:43.506Z,8.20
2017-09-06T17:47:10.975Z,4.80
2017-09-06T17:49:38.487Z,5.53
2017-09-06T17:52:05.962Z,3.80
2017-09-06T17:54:33.460Z,7.00
2017-09-06T17:57:00.935Z,5.50
2017-09-06T17:59:28.429Z,10.37
2017-09-06T18:01:55.912Z,7.10
2017-09-06T18:04:23.379Z,4.80
2017-09-06T18:06:50.872Z,7.07
2017-09-06T18:09:18.351Z,10.43
2017-09-06T18:11:45.855Z,8.00
2017-09-06T18:14:13.381Z,4.50
2017-09-06T18:16:40.870Z,10.30
2017-09-06T18:19:08.405Z,7.37
2017-09-06T18:21:35.872Z,12.00
2017-09-06T18:24:03.387Z,6.23
2017-09-06T18:26:30.892Z,13.93
2017-09-06T18:28:58.393Z,5.03
2017-09-06T18:31:25.881Z,8.23
2017-09-06T18:33:53.420Z,10.13
2017-09-06T18:36:20.930Z,12.50
2017-09-06T18:38:48.425Z,12.00
2017-09-06T18:41:15.963Z,15.10
2017-09-06T18:43:43.436Z,5.93
2017-09-06T18:46:10.958Z,14.33
2017-09-06T18:48:38.420Z,5.60
2017-09-06T18:51:05.944Z,10.63
2017-09-06T18:53:33.422Z,6.80
2017-09-06T18:56:00.886Z,5.83
2017-09-06T18:58:28.395Z,7.07
2017-09-06T19:00:55.904Z,3.90
2017-09-06T19:03:23.373Z,5.30
2017-09-06T19:05:50.875Z,5.73
2017-09-06T19:08:18.351Z,6.27
2017-09-06T19:10:45.856Z,12.90
2017-09-06T19:13:13.352Z,6.33
2017-09-06T19:15:40.823Z,17.40
2017-09-06T19:18:08.355Z,9.07
2017-09-06T19:20:35.839Z,7.87
2017-09-06T19:23:03.296Z,8.83
2017-09-06T19:25:30.813Z,7.10
2017-09-06T19:27:58.291Z,5.10
2017-09-06T19:30:25.794Z,7.47
2017-09-06T19:32:53.315Z,10.90
2017-09-06T19:35:20.820Z,8.50
2017-09-06T19:37:48.351Z,10.13
2017-09-06T19:40:15.876Z,13.90
2017-09-06T19:42:43.353Z,8.13
2017-09-06T19:45:10.803Z,6.00
2017-09-06T19:47:38.317Z,10.70
2017-09-06T19:50:05.803Z,5.60
2017-09-06T19:52:33.277Z,8.50
2017-09-06T19:55:00.907Z,6.70
2017-09-06T19:57:28.375Z,8.73
2017-09-06T19:59:55.889Z,10.40
2017-09-06T20:02:24.139Z,11.30
2017-09-06T20:04:51.627Z,8.03
2017-09-06T20:07:19.078Z,4.97
2017-09-06T20:09:46.553Z,8.53
2017-09-06T20:12:14.059Z,7.57
2017-09-06T20:14:41.536Z,9.50
2017-09-06T20:17:09.060Z,7.93
2017-09-06T20:19:36.543Z,10.73
2017-09-06T20:22:04.059Z,4.97
2017-09-06T20:24:31.526Z,8.83
2017-09-06T20:26:58.996Z,12.87
2017-09-06T20:29:26.511Z,5.90
2017-09-06T20:31:53.979Z,9.97
2017-09-06T20:34:21.453Z,9.87
2017-09-06T20:36:48.950Z,8.60
2017-09-06T20:39:16.535Z,10.83
2017-09-06T20:41:44.055Z,9.77
2017-09-06T20:44:11.563Z,5.97
2017-09-06T20:46:39.060Z,10.67
2017-09-06T20:49:06.570Z,11.03
2017-09-06T20:51:34.806Z,5.07
2017-09-06T20:54:02.269Z,11.50
2017-09-06T20:56:29.771Z,14.83
2017-09-06T20:58:57.246Z,10.67
2017-09-06T21:01:24.728Z,9.70
2017-09-06T21:03:52.233Z,11.10
2017-09-06T21:06:19.695Z,4.30
2017-09-06T21:08:47.200Z,12.80
2017-09-06T21:11:14.659Z,8.37
2017-09-06T21:13:42.168Z,6.60
2017-09-06T21:16:09.646Z,9.70
2017-09-06T21:18:37.149Z,9.47
2017-09-06T21:21:04.659Z,11.60
2017-09-06T21:23:32.914Z,15.80
2017-09-06T21:26:00.426Z,13.13
2017-09-06T21:28:27.900Z,7.60
2017-09-06T21:30:55.368Z,6.60
2017-09-06T21:33:22.859Z,14.93
2017-09-06T21:35:50.329Z,13.27
2017-09-06T21:38:17.840Z,6.70
2017-09-06T21:40:45.314Z,8.20
2017-09-06T21:43:12.852Z,6.37
2017-09-06T21:45:40.369Z,10.80
2017-09-06T21:48:07.834Z,8.10
2017-09-06T21:50:35.371Z,15.63
2017-09-06T21:53:02.842Z,6.17
2017-09-06T21:55:30.315Z,15.40
2017-09-06T21:57:57.819Z,6.30
2017-09-06T22:00:25.290Z,14.80
2017-09-06T22:02:52.783Z,12.10
2017-09-06T22:05:20.271Z,19.83
2017-09-06T22:07:47.767Z,9.03
2017-09-06T22:10:15.302Z,10.40
2017-09-06T22:12:42.772Z,10.43
2017-09-06T22:15:10.279Z,13.20
2017-09-06T22:17:37.756Z,5.13
2017-09-06T22:20:05.244Z,5.77
2017-09-06T22:22:32.741Z,7.20
2017-09-06T22:25:00.995Z,7.87
2017-09-06T22:27:28.460Z,9.93
2017-09-06T22:30:26.653Z,11.17
2017-09-06T22:32:54.898Z,20.20
2017-09-06T22:35:22.390Z,15.30
2017-09-06T22:37:50.619Z,14.10
2017-09-06T22:40:18.120Z,6.33
2017-09-06T22:42:46.352Z,8.50
2017-09-06T22:45:13.855Z,10.43
2017-09-06T22:47:41.351Z,9.20
2017-09-06T22:50:08.811Z,12.23
2017-09-06T22:52:36.315Z,19.23
2017-09-06T22:55:03.791Z,13.10
2017-09-06T22:57:32.058Z,9.97
2017-09-06T23:00:00.362Z,15.07
2017-09-06T23:02:28.566Z,12.00
2017-09-06T23:04:56.080Z,9.50
2017-09-06T23:07:23.540Z,10.57
2017-09-06T23:09:51.014Z,15.90
2017-09-06T23:12:18.509Z,10.57
2017-09-06T23:14:45.980Z,17.43
2017-09-06T23:17:13.474Z,17.43
2017-09-06T23:19:41.711Z,9.00
2017-09-06T23:22:09.200Z,14.37
2017-09-06T23:24:37.456Z,9.10
2017-09-06T23:27:05.707Z,14.23
2017-09-06T23:29:33.179Z,12.47
2017-09-06T23:32:00.690Z,7.97
2017-09-06T23:34:29.183Z,7.83
2017-09-06T23:36:56.683Z,9.37
2017-09-06T23:39:24.211Z,11.77
2017-09-06T23:41:51.679Z,12.80
2017-09-06T23:44:19.209Z,15.10
2017-09-06T23:46:46.690Z,7.40
2017-09-06T23:49:14.154Z,6.30
2017-09-06T23:51:41.656Z,5.17
2017-09-06T23:54:09.148Z,8.43
2017-09-06T23:56:36.635Z,15.33
2017-09-06T23:59:04.097Z,10.83
